Terminal Aerodrome Forecast
Issued by NWS

Home | Current Version | Previous Version | Graphics & Text | Print | Product List | Glossary Off
Versions: 1 2 3 4 5 6 7 8 9 10 11 12 13 14 15

000
FTUS43 KDDC 180520
TAFHYS
TAF
KHYS 180520Z 1806/1906 16011KT P6SM BKN200 WS020/20045KT
     FM181200 17011KT P6SM SCT200
     FM181500 19018G26KT P6SM FEW250
     FM190100 17011KT P6SM FEW250=

USA.gov is the U.S. government's official web portal to all federal, state and local government web resources and services.